Time;durP1;ratioP1;P1;durP2;ratioP2;P2;SDS_P1;SDS_P2;PMS_P1;PMS_P2;Temp;Humidity;BMP_temperature;BMP_pressure;BME280_temperature;BME280_humidity;BME280_pressure;Samples;Min_cycle;Max_cycle;Signal;HPM_P1;HPM_P2
2022/03/19 00:01:32;;;;;;;24.33;13.43;;;;;;;5.61;31.23;97117.22;5027984;28;20188;-61
2022/03/19 00:03:59;;;;;;;21.05;11.45;;;;;;;5.43;31.17;97103.66;5027538;28;20692;-61
2022/03/19 00:06:26;;;;;;;19.23;10.65;;;;;;;5.37;31.25;97108.69;5028023;28;20236;-62
2022/03/19 00:08:56;;;;;;;17.70;11.00;;;;;;;5.51;30.95;97121.00;5027444;28;20647;-63
2022/03/19 00:11:24;;;;;;;17.90;9.95;;;;;;;5.39;30.62;97111.94;5028446;28;20277;-60
2022/03/19 00:13:51;;;;;;;21.15;10.85;;;;;;;5.77;30.58;97121.50;5027797;28;20189;-61
2022/03/19 00:16:17;;;;;;;17.10;9.70;;;;;;;4.60;31.46;97110.22;5027668;28;20756;-61
2022/03/19 00:18:44;;;;;;;16.33;9.32;;;;;;;4.96;31.07;97108.84;5027589;28;20642;-61
2022/03/19 00:21:11;;;;;;;19.15;10.10;;;;;;;5.45;30.64;97106.09;5027343;28;20223;-62
2022/03/19 00:23:38;;;;;;;21.33;11.13;;;;;;;5.41;30.58;97110.00;5028447;28;20231;-62
2022/03/19 00:26:06;;;;;;;16.75;9.73;;;;;;;5.48;30.97;97105.72;5027502;28;20231;-61
2022/03/19 00:28:32;;;;;;;23.92;11.18;;;;;;;5.58;30.51;97101.16;5027711;28;20938;-61
2022/03/19 00:30:59;;;;;;;22.73;10.95;;;;;;;5.50;31.13;97108.97;5025697;28;20220;-61
2022/03/19 00:33:26;;;;;;;26.13;11.02;;;;;;;5.70;30.86;97099.78;5028018;28;20227;-60
2022/03/19 00:35:53;;;;;;;22.88;10.30;;;;;;;5.82;30.84;97098.41;5027380;28;20205;-61
2022/03/19 00:38:20;;;;;;;18.23;9.95;;;;;;;5.96;31.12;97095.09;5027947;28;20675;-61
2022/03/19 00:40:49;;;;;;;20.95;10.48;;;;;;;5.77;31.80;97108.50;5026942;28;20234;-62
2022/03/19 00:43:16;;;;;;;25.50;11.32;;;;;;;5.95;31.13;97103.88;5027632;28;20405;-61
2022/03/19 00:45:43;;;;;;;24.70;11.80;;;;;;;6.06;31.82;97106.06;5029690;28;20225;-61
2022/03/19 00:48:10;;;;;;;24.05;12.55;;;;;;;6.18;31.70;97104.69;5031870;28;20205;-61
2022/03/19 00:50:37;;;;;;;25.95;13.82;;;;;;;6.14;31.63;97108.63;5030681;28;20707;-62
2022/03/19 00:53:04;;;;;;;26.80;15.07;;;;;;;5.91;32.04;97100.00;5031383;28;20201;-62
2022/03/19 00:55:30;;;;;;;29.73;15.98;;;;;;;5.83;32.00;97116.47;5031015;28;20228;-62
2022/03/19 00:57:58;;;;;;;31.88;16.75;;;;;;;5.90;32.07;97111.38;5031612;28;20619;-61
2022/03/19 01:00:26;;;;;;;34.65;17.80;;;;;;;5.93;32.10;97113.66;5030528;28;20212;-61
2022/03/19 01:02:55;;;;;;;39.47;20.10;;;;;;;5.99;31.53;97105.97;5031349;28;20244;-62
2022/03/19 01:05:23;;;;;;;67.20;32.17;;;;;;;5.59;32.20;97113.97;5030816;28;20209;-62
2022/03/19 01:07:53;;;;;;;78.10;37.17;;;;;;;5.73;31.94;97107.25;5031556;28;20201;-61
2022/03/19 01:10:25;;;;;;;88.90;41.53;;;;;;;5.79;31.57;97114.34;5030380;28;20544;-61
2022/03/19 01:12:56;;;;;;;69.93;32.72;;;;;;;5.53;32.01;97109.44;5031906;28;20189;-61
2022/03/19 01:15:24;;;;;;;67.32;29.88;;;;;;;5.46;32.46;97103.31;5031057;28;20199;-61
2022/03/19 01:17:51;;;;;;;78.63;34.53;;;;;;;5.47;32.20;97109.31;5031583;28;20181;-61
2022/03/19 01:20:18;;;;;;;72.63;32.88;;;;;;;5.55;32.28;97104.88;5031116;28;20657;-62
2022/03/19 01:22:47;;;;;;;79.50;34.25;;;;;;;5.03;32.58;97104.63;5033194;28;20972;-61
2022/03/19 01:25:16;;;;;;;71.38;32.60;;;;;;;5.38;32.46;97105.97;5032504;28;20212;-62
2022/03/19 01:27:44;;;;;;;81.75;37.55;;;;;;;5.41;32.04;97099.59;5031355;28;20247;-61
2022/03/19 01:30:13;;;;;;;81.50;37.10;;;;;;;5.56;32.32;97097.91;5030331;28;20621;-62
2022/03/19 01:32:41;;;;;;;85.15;38.17;;;;;;;5.32;32.30;97095.41;5030666;28;20202;-61
2022/03/19 01:35:09;;;;;;;84.10;38.55;;;;;;;5.23;32.35;97096.41;5030447;28;20205;-61
2022/03/19 01:37:38;;;;;;;83.68;37.40;;;;;;;5.45;32.22;97082.69;5030330;28;20748;-61
2022/03/19 01:40:06;;;;;;;83.60;38.55;;;;;;;5.40;32.43;97090.19;5028819;28;20691;-62
2022/03/19 01:42:36;;;;;;;78.05;36.75;;;;;;;5.51;32.26;97095.00;5030206;28;20209;-62
2022/03/19 01:45:05;;;;;;;75.32;36.55;;;;;;;5.36;32.51;97089.72;5030423;28;20675;-62
2022/03/19 01:47:33;;;;;;;71.35;33.92;;;;;;;5.46;32.51;97086.88;5030416;28;20605;-61
2022/03/19 01:50:00;;;;;;;68.93;33.47;;;;;;;5.44;32.55;97084.47;5029703;28;20232;-61
2022/03/19 01:52:28;;;;;;;68.63;33.72;;;;;;;5.15;32.51;97092.06;5030095;28;20562;-60
2022/03/19 01:54:56;;;;;;;68.00;32.63;;;;;;;5.28;32.57;97083.72;5029598;28;20655;-62
2022/03/19 01:57:30;;;;;;;61.78;29.63;;;;;;;5.20;32.86;97086.38;5029740;28;20197;-61
2022/03/19 01:59:58;;;;;;;56.22;28.30;;;;;;;5.09;32.53;97080.56;5028800;28;20239;-61
2022/03/19 02:02:27;;;;;;;57.22;28.23;;;;;;;4.94;32.94;97090.03;5029763;28;20205;-60
2022/03/19 02:04:54;;;;;;;55.78;28.48;;;;;;;5.00;33.18;97086.75;5030690;28;20186;-61
2022/03/19 02:07:21;;;;;;;50.42;25.70;;;;;;;4.97;32.84;97076.69;5031204;28;20279;-61
2022/03/19 02:09:48;;;;;;;54.63;26.63;;;;;;;4.80;32.81;97077.72;5029705;28;20228;-62
2022/03/19 02:12:15;;;;;;;53.83;27.10;;;;;;;5.06;32.75;97073.09;5029945;28;20627;-61
2022/03/19 02:14:44;;;;;;;57.03;27.55;;;;;;;4.97;32.89;97079.31;5029460;28;20280;-61
2022/03/19 02:17:11;;;;;;;61.25;28.88;;;;;;;5.11;33.03;97083.78;5029879;28;20189;-61
2022/03/19 02:19:53;;;;;;;62.83;30.13;;;;;;;5.21;33.50;97083.59;5028462;28;20201;-61
2022/03/19 02:22:26;;;;;;;64.57;30.38;;;;;;;5.14;33.41;97080.88;5029770;28;20209;-60
2022/03/19 02:27:40;;;;;;;57.28;28.75;;;;;;;5.26;32.92;97080.47;5029648;28;20232;-61
2022/03/19 02:30:10;;;;;;;60.30;30.30;;;;;;;4.70;33.72;97069.31;5029013;28;20197;-61
2022/03/19 02:32:42;;;;;;;58.67;30.70;;;;;;;4.83;33.84;97085.19;5029625;28;20201;-62
2022/03/19 02:35:09;;;;;;;56.67;29.25;;;;;;;4.72;33.92;97072.56;5028603;28;20685;-61
2022/03/19 02:37:41;;;;;;;60.65;29.75;;;;;;;4.83;33.61;97077.41;5029610;28;20316;-61
2022/03/19 02:40:10;;;;;;;60.17;30.17;;;;;;;4.46;33.92;97074.53;5029554;28;20201;-61
2022/03/19 02:42:45;;;;;;;70.13;34.67;;;;;;;4.59;33.88;97087.03;5030062;28;20708;-61
2022/03/19 02:45:12;;;;;;;69.68;34.40;;;;;;;4.35;34.84;97090.47;5029040;28;20189;-60
2022/03/19 02:47:57;;;;;;;75.70;35.22;;;;;;;4.41;34.70;97079.44;5029007;28;20332;-61
2022/03/19 02:50:36;;;;;;;72.03;36.90;;;;;;;4.21;35.29;97088.53;5028904;28;20228;-60
2022/03/19 02:53:10;;;;;;;77.30;37.35;;;;;;;4.05;35.41;97091.13;5029320;28;20303;-61
2022/03/19 02:55:40;;;;;;;77.47;36.92;;;;;;;4.14;35.50;97095.34;5028525;28;20212;-60
2022/03/19 02:58:08;;;;;;;78.07;37.50;;;;;;;3.95;35.63;97096.44;5029715;28;20216;-60
2022/03/19 03:00:36;;;;;;;86.88;39.78;;;;;;;3.95;35.65;97093.84;5028463;28;20237;-61
2022/03/19 03:03:04;;;;;;;78.18;39.67;;;;;;;4.17;34.79;97097.59;5029601;28;20185;-61
2022/03/19 03:05:33;;;;;;;71.47;34.40;;;;;;;3.65;35.58;97096.25;5028392;28;20182;-61
2022/03/19 03:08:01;;;;;;;75.00;36.47;;;;;;;3.58;36.14;97103.81;5028842;28;20618;-62
2022/03/19 03:10:29;;;;;;;66.43;34.92;;;;;;;3.02;36.59;97104.44;5028251;28;20201;-60
2022/03/19 03:12:55;;;;;;;68.25;34.38;;;;;;;2.73;37.42;97103.97;5029257;28;20282;-60
2022/03/19 03:15:23;;;;;;;72.85;33.92;;;;;;;2.76;37.49;97108.84;5028615;28;20252;-60
2022/03/19 03:17:51;;;;;;;72.57;33.38;;;;;;;2.90;37.61;97104.88;5028424;28;20288;-62
2022/03/19 03:20:18;;;;;;;65.53;33.10;;;;;;;3.05;36.70;97098.94;5026535;28;20231;-60
2022/03/19 03:22:44;;;;;;;64.60;33.33;;;;;;;3.25;36.79;97093.53;5028834;28;20220;-60
2022/03/19 03:25:11;;;;;;;64.90;30.05;;;;;;;3.15;36.46;97098.00;5028241;28;20204;-61
2022/03/19 03:27:38;;;;;;;58.63;28.95;;;;;;;3.16;36.40;97095.25;5028318;28;20224;-60
2022/03/19 03:30:06;;;;;;;54.53;29.67;;;;;;;3.39;36.52;97092.94;5027355;28;20197;-63
2022/03/19 03:32:33;;;;;;;52.33;28.95;;;;;;;3.66;35.71;97103.84;5028516;28;20189;-61
2022/03/19 03:35:00;;;;;;;58.03;30.20;;;;;;;3.12;36.87;97103.53;5027957;28;20205;-63
2022/03/19 03:37:27;;;;;;;49.45;29.35;;;;;;;3.61;36.30;97094.94;5028381;28;20190;-61
2022/03/19 03:39:53;;;;;;;54.33;28.80;;;;;;;3.24;36.79;97102.25;5027823;28;20185;-61
2022/03/19 03:42:20;;;;;;;53.03;29.08;;;;;;;3.02;37.87;97094.09;5028835;28;20563;-62
2022/03/19 03:44:47;;;;;;;56.00;28.52;;;;;;;3.37;36.96;97093.09;5028079;28;20579;-61
2022/03/19 03:47:14;;;;;;;48.05;26.48;;;;;;;3.43;36.32;97102.03;5028167;28;20221;-62
2022/03/19 03:49:42;;;;;;;51.60;27.02;;;;;;;3.23;36.62;97105.84;5027916;28;20225;-63
2022/03/19 03:52:09;;;;;;;52.88;28.38;;;;;;;3.03;36.77;97093.09;5028051;28;20609;-61
2022/03/19 03:54:35;;;;;;;53.95;27.77;;;;;;;3.03;36.96;97095.69;5027956;28;20201;-61
2022/03/19 03:57:03;;;;;;;55.90;27.35;;;;;;;3.25;36.63;97109.09;5028167;28;20707;-61
2022/03/19 03:59:30;;;;;;;51.65;27.00;;;;;;;3.16;37.09;97107.44;5027257;28;20236;-61
2022/03/19 04:01:58;;;;;;;46.22;26.10;;;;;;;3.10;36.92;97101.88;5027880;28;20817;-62
2022/03/19 04:04:26;;;;;;;49.03;26.00;;;;;;;3.18;36.91;97100.28;5027893;28;20200;-61
2022/03/19 04:06:52;;;;;;;46.85;24.90;;;;;;;3.23;36.52;97090.28;5027835;28;20231;-61
2022/03/19 04:09:20;;;;;;;45.75;25.70;;;;;;;3.21;36.60;97094.81;5027007;28;20197;-61
2022/03/19 04:11:47;;;;;;;50.85;25.98;;;;;;;3.06;36.92;97099.78;5027330;28;20197;-60
2022/03/19 04:14:14;;;;;;;50.47;26.27;;;;;;;3.03;36.78;97103.47;5027479;28;20921;-60
2022/03/19 04:16:40;;;;;;;54.55;27.25;;;;;;;2.75;37.30;97102.03;5028258;28;20359;-62
2022/03/19 04:19:07;;;;;;;51.42;26.67;;;;;;;2.63;37.63;97102.44;5027067;28;20240;-62
2022/03/19 04:21:34;;;;;;;50.13;26.83;;;;;;;2.47;37.73;97105.72;5027573;28;20278;-61
2022/03/19 04:24:02;;;;;;;48.35;26.88;;;;;;;2.24;38.44;97107.19;5027542;28;20220;-60
2022/03/19 04:26:29;;;;;;;53.53;28.13;;;;;;;1.61;39.27;97108.22;5027540;28;20591;-60
2022/03/19 04:28:56;;;;;;;53.80;27.00;;;;;;;1.43;39.83;97084.13;5027348;28;20699;-61
2022/03/19 04:31:22;;;;;;;53.58;27.35;;;;;;;1.09;40.13;97093.44;5027832;28;20675;-60
2022/03/19 04:33:49;;;;;;;50.05;26.42;;;;;;;1.26;39.94;97108.19;5027546;28;20661;-61
2022/03/19 04:36:29;;;;;;;50.88;27.05;;;;;;;0.71;40.90;97113.25;5027178;28;20267;-61
2022/03/19 04:39:02;;;;;;;57.00;26.73;;;;;;;1.14;40.29;97109.31;5027465;28;20197;-61
2022/03/19 04:41:30;;;;;;;59.90;28.45;;;;;;;1.02;40.09;97116.44;5027850;28;20665;-60
2022/03/19 04:43:57;;;;;;;48.58;26.25;;;;;;;1.25;39.78;97111.69;5027311;28;20205;-61
2022/03/19 04:46:24;;;;;;;48.05;25.02;;;;;;;0.69;40.86;97109.22;5027728;28;20648;-61
2022/03/19 04:48:53;;;;;;;47.78;25.20;;;;;;;0.77;40.83;97122.22;5027451;28;20196;-62
2022/03/19 04:51:21;;;;;;;53.47;29.13;;;;;;;1.04;41.00;97115.31;5027535;28;20262;-61
2022/03/19 04:53:52;;;;;;;58.92;29.92;;;;;;;1.29;40.48;97113.03;5027478;28;20208;-60
2022/03/19 04:56:23;;;;;;;52.90;30.13;;;;;;;1.24;39.99;97102.34;5028021;28;20287;-60
2022/03/19 04:58:55;;;;;;;49.83;27.33;;;;;;;1.57;40.50;97117.25;5027058;28;20283;-61
2022/03/19 05:01:26;;;;;;;56.03;26.60;;;;;;;1.58;40.00;97113.69;5027433;28;20216;-61
2022/03/19 05:03:55;;;;;;;52.40;26.73;;;;;;;1.71;40.56;97094.28;5026321;28;20574;-62
2022/03/19 05:06:22;;;;;;;57.35;27.48;;;;;;;1.75;40.56;97120.66;5040402;28;20295;-63
2022/03/19 05:11:35;;;;;;;65.63;31.90;;;;;;;1.70;41.01;97118.50;5027697;28;20260;-63
2022/03/19 05:14:04;;;;;;;71.03;35.55;;;;;;;1.33;41.82;97119.53;5026057;28;20244;-61
2022/03/19 05:16:32;;;;;;;100.75;48.67;;;;;;;1.32;42.20;97115.31;5027748;28;20213;-64
2022/03/19 05:18:59;;;;;;;78.78;39.20;;;;;;;2.38;39.10;97118.75;5027365;28;20262;-62
2022/03/19 05:21:27;;;;;;;65.80;32.35;;;;;;;2.47;38.63;97118.66;5027492;28;20197;-62
2022/03/19 05:23:55;;;;;;;66.03;34.15;;;;;;;2.46;44.46;97127.41;5026576;28;20190;-63
2022/03/19 05:26:22;;;;;;;70.65;34.75;;;;;;;2.98;42.84;97123.84;5027394;28;20193;-64
2022/03/19 05:28:48;;;;;;;61.75;30.90;;;;;;;3.33;40.48;97127.22;5027593;28;20351;-63
2022/03/19 05:31:32;;;;;;;50.53;27.67;;;;;;;3.43;39.55;97125.34;5027760;28;20185;-64
2022/03/19 05:36:44;;;;;;;41.28;21.23;;;;;;;3.16;38.71;97126.34;5030866;28;20213;-64
2022/03/19 05:39:11;;;;;;;37.88;19.75;;;;;;;3.42;37.91;97121.13;5030130;28;20227;-64
2022/03/19 05:41:38;;;;;;;37.50;19.52;;;;;;;3.52;37.43;97127.00;5031040;28;20213;-63
2022/03/19 05:44:05;;;;;;;29.42;16.58;;;;;;;3.73;36.26;97124.78;5030513;28;20679;-62
2022/03/19 05:46:32;;;;;;;34.35;16.67;;;;;;;3.86;35.99;97119.94;5031036;28;20203;-63
2022/03/19 05:48:59;;;;;;;29.17;15.20;;;;;;;3.72;35.73;97118.75;5030500;28;20232;-64
2022/03/19 05:51:25;;;;;;;28.60;16.25;;;;;;;3.76;35.71;97120.06;5030922;28;20205;-63
2022/03/19 05:53:52;;;;;;;36.47;16.10;;;;;;;3.79;35.62;97129.31;5029340;28;20197;-62
2022/03/19 05:56:19;;;;;;;27.20;16.23;;;;;;;3.94;35.28;97112.19;5029749;28;20197;-63
2022/03/19 05:58:46;;;;;;;41.35;22.73;;;;;;;4.15;35.29;97128.09;5030099;28;20200;-62
2022/03/19 06:01:13;;;;;;;49.50;27.17;;;;;;;4.06;34.96;97116.06;5031044;28;20197;-63
2022/03/19 06:03:40;;;;;;;45.95;26.35;;;;;;;3.47;35.90;97121.44;5031675;28;20312;-62
2022/03/19 06:06:06;;;;;;;40.58;22.92;;;;;;;3.80;35.18;97120.56;5030951;28;20352;-63
2022/03/19 06:08:33;;;;;;;38.40;20.80;;;;;;;3.85;35.55;97128.69;5030450;28;20268;-63
2022/03/19 06:11:00;;;;;;;38.67;18.25;;;;;;;3.97;35.28;97117.03;5030126;28;20200;-63
2022/03/19 06:13:27;;;;;;;30.85;17.08;;;;;;;4.03;35.13;97121.59;5030244;28;20201;-63
2022/03/19 06:15:54;;;;;;;31.35;15.93;;;;;;;4.28;38.61;97120.63;5029574;28;20664;-64
2022/03/19 06:18:21;;;;;;;33.03;16.85;;;;;;;4.34;38.17;97125.19;5029128;28;20267;-64
2022/03/19 06:20:48;;;;;;;31.38;16.88;;;;;;;4.76;37.23;97117.97;5029529;28;20197;-64
2022/03/19 06:23:15;;;;;;;28.67;15.88;;;;;;;4.59;36.78;97118.19;5029809;28;20673;-64
2022/03/19 06:25:42;;;;;;;28.38;16.42;;;;;;;4.80;36.91;97116.69;5029510;28;20655;-64
2022/03/19 06:28:09;;;;;;;32.90;16.65;;;;;;;4.88;35.55;97119.28;5030151;28;20205;-62
2022/03/19 06:30:38;;;;;;;28.70;16.63;;;;;;;4.87;35.82;97117.63;5029091;28;20205;-63
2022/03/19 06:33:06;;;;;;;29.48;15.43;;;;;;;5.04;35.86;97119.22;5029413;28;20205;-62
2022/03/19 06:38:22;;;;;;;35.53;16.67;;;;;;;4.93;35.01;97111.78;5029049;28;20212;-62
2022/03/19 06:40:49;;;;;;;37.42;18.10;;;;;;;4.93;34.94;97109.19;5028365;28;20190;-64
2022/03/19 06:43:16;;;;;;;55.70;25.30;;;;;;;3.91;36.06;97115.06;5028915;28;20304;-65
2022/03/19 06:45:43;;;;;;;35.72;19.35;;;;;;;3.75;36.51;97123.66;5029120;28;20274;-64
2022/03/19 06:48:11;;;;;;;28.33;16.67;;;;;;;3.65;37.41;97122.19;5028727;28;20260;-62
2022/03/19 06:50:38;;;;;;;30.00;16.98;;;;;;;3.08;36.43;97119.34;5027194;28;20205;-63
2022/03/19 06:53:05;;;;;;;27.73;15.75;;;;;;;2.99;36.79;97125.47;5029154;28;20189;-64
2022/03/19 06:55:32;;;;;;;57.70;33.55;;;;;;;2.95;36.98;97103.44;5028647;28;20799;-62
2022/03/19 06:57:59;;;;;;;66.15;34.67;;;;;;;4.29;34.55;97109.25;5028960;28;20193;-62
2022/03/19 07:00:27;;;;;;;28.35;14.20;;;;;;;3.42;33.94;97110.75;5028053;28;20597;-63
2022/03/19 07:02:55;;;;;;;35.80;15.70;;;;;;;3.89;34.06;97099.69;5028356;28;20205;-63
2022/03/19 07:05:24;;;;;;;22.00;12.80;;;;;;;3.78;33.81;97099.97;5028328;28;20734;-62
2022/03/19 07:07:53;;;;;;;26.15;14.65;;;;;;;3.69;33.80;97110.50;5029030;28;20236;-63
2022/03/19 07:10:20;;;;;;;25.15;14.43;;;;;;;4.55;33.34;97094.31;5028452;28;20204;-65
2022/03/19 07:12:50;;;;;;;50.85;23.85;;;;;;;4.65;32.89;97096.75;5029061;28;20209;-63
2022/03/19 07:15:19;;;;;;;29.05;15.45;;;;;;;4.50;32.74;97099.22;5028696;28;20209;-62
2022/03/19 07:17:46;;;;;;;26.27;14.05;;;;;;;5.16;31.99;97081.50;5029201;28;20223;-63
2022/03/19 07:20:14;;;;;;;21.33;12.43;;;;;;;4.41;31.67;97097.59;5028462;28;20205;-62
2022/03/19 07:22:54;;;;;;;23.27;14.10;;;;;;;5.28;31.04;97094.13;5030245;28;20304;-64
2022/03/19 07:25:24;;;;;;;26.50;14.45;;;;;;;5.97;31.09;97091.50;5028264;28;20196;-65
2022/03/19 07:27:52;;;;;;;28.40;14.75;;;;;;;6.24;30.89;97088.34;5028807;28;20229;-64
2022/03/19 07:30:20;;;;;;;31.75;14.63;;;;;;;6.53;31.27;97090.25;5027809;28;20224;-62
2022/03/19 07:32:49;;;;;;;25.50;14.88;;;;;;;6.48;30.38;97103.00;5029283;28;20209;-62
2022/03/19 07:35:16;;;;;;;24.40;15.10;;;;;;;6.53;29.48;97088.44;5028995;28;20193;-62
2022/03/19 07:37:44;;;;;;;23.48;14.25;;;;;;;6.54;30.37;97090.06;5032687;28;20676;-64
2022/03/19 07:40:14;;;;;;;34.67;19.40;;;;;;;6.55;30.83;97096.88;5029836;28;20211;-64
2022/03/19 07:42:41;;;;;;;48.13;24.92;;;;;;;6.64;31.10;97079.41;5032613;28;20205;-62
2022/03/19 07:45:09;;;;;;;41.50;23.40;;;;;;;6.76;30.83;97086.59;5026484;28;20224;-63
2022/03/19 07:47:35;;;;;;;41.25;23.38;;;;;;;7.04;36.07;97060.72;5027719;28;20224;-61
2022/03/19 07:50:03;;;;;;;46.03;23.83;;;;;;;7.47;33.69;97092.97;5028093;28;20593;-62
2022/03/19 07:52:33;;;;;;;45.30;24.55;;;;;;;7.88;33.44;97088.84;5026788;28;20212;-60
2022/03/19 07:54:59;;;;;;;45.30;25.38;;;;;;;8.13;31.64;97084.84;5026828;28;20708;-60
2022/03/19 07:57:26;;;;;;;43.03;23.75;;;;;;;8.08;30.96;97087.22;5028411;28;20274;-60
2022/03/19 07:59:54;;;;;;;39.38;22.52;;;;;;;8.05;31.05;97077.94;5027739;28;20713;-62
2022/03/19 08:02:22;;;;;;;80.50;48.30;;;;;;;8.29;30.44;97058.50;5027886;28;20212;-61
2022/03/19 08:04:49;;;;;;;493.50;368.38;;;;;;;8.39;30.22;97077.28;5027330;28;20263;-63
2022/03/19 08:07:16;;;;;;;41.25;24.77;;;;;;;8.04;29.39;97078.16;5028257;28;20227;-61
2022/03/19 08:09:43;;;;;;;36.50;22.80;;;;;;;8.00;30.29;97089.94;5027405;28;20203;-61
2022/03/19 08:12:10;;;;;;;41.05;26.08;;;;;;;7.82;29.73;97093.00;5027967;28;20197;-61
2022/03/19 08:14:37;;;;;;;40.50;25.27;;;;;;;8.10;29.63;97080.03;5027410;28;20201;-60
2022/03/19 08:17:04;;;;;;;50.00;29.45;;;;;;;8.16;29.56;97079.25;5027623;28;20240;-62
2022/03/19 08:19:32;;;;;;;43.30;27.10;;;;;;;8.23;29.07;97067.06;5027598;28;20251;-61
2022/03/19 08:22:18;;;;;;;30.27;18.05;;;;;;;7.64;28.22;97087.38;5027487;28;20209;-61
2022/03/19 08:24:46;;;;;;;33.03;19.50;;;;;;;8.09;27.89;97073.97;5027641;28;20197;-62
2022/03/19 08:27:12;;;;;;;35.78;19.13;;;;;;;7.84;27.46;97079.75;5027192;28;20193;-63
2022/03/19 08:29:39;;;;;;;77.63;44.55;;;;;;;7.74;29.59;97074.81;5027379;28;20194;-63
2022/03/19 08:32:08;;;;;;;27.55;16.23;;;;;;;8.49;28.59;97067.31;5027869;28;20201;-62
2022/03/19 08:34:35;;;;;;;27.35;14.07;;;;;;;8.49;27.15;97069.09;5027121;28;20205;-60
2022/03/19 08:37:02;;;;;;;22.17;12.25;;;;;;;8.52;26.40;97063.53;5027239;28;20209;-61
2022/03/19 08:42:14;;;;;;;16.52;11.98;;;;;;;8.93;27.68;97059.16;5027633;28;20197;-62
2022/03/19 08:44:41;;;;;;;20.42;13.40;;;;;;;8.89;26.19;97050.09;5026815;28;20691;-62
2022/03/19 08:47:08;;;;;;;29.08;14.40;;;;;;;8.83;25.86;97058.72;5027617;28;20201;-60
2022/03/19 08:49:35;;;;;;;21.52;13.82;;;;;;;9.37;25.96;97058.78;5026730;28;20284;-62
2022/03/19 08:52:02;;;;;;;18.77;13.32;;;;;;;9.25;26.82;97055.13;5027521;28;20283;-61
2022/03/19 08:54:29;;;;;;;19.70;11.10;;;;;;;9.44;25.85;97057.00;5027319;28;20201;-62
2022/03/19 08:56:59;;;;;;;17.13;11.40;;;;;;;9.00;25.55;97052.97;5027393;28;20205;-62
2022/03/19 08:59:26;;;;;;;15.85;11.02;;;;;;;9.11;25.05;97055.06;5026679;28;20241;-63
2022/03/19 09:01:54;;;;;;;18.23;11.48;;;;;;;9.31;25.06;97049.09;5027019;28;20289;-65
2022/03/19 09:04:21;;;;;;;17.08;10.10;;;;;;;9.10;24.47;97042.97;5026990;28;20240;-61
2022/03/19 09:06:48;;;;;;;18.80;11.85;;;;;;;9.39;25.17;97046.31;5030325;28;20589;-62
2022/03/19 09:09:17;;;;;;;32.10;17.13;;;;;;;9.65;26.98;97046.41;5030904;28;20224;-65
2022/03/19 09:11:44;;;;;;;149.75;74.20;;;;;;;9.47;25.37;97044.34;5031808;28;20198;-65
2022/03/19 09:14:11;;;;;;;15.70;10.73;;;;;;;9.85;24.75;97042.03;5030975;28;20185;-62
2022/03/19 09:16:40;;;;;;;17.17;11.43;;;;;;;9.45;24.43;97043.72;5031368;28;20268;-64
2022/03/19 09:19:07;;;;;;;19.52;13.05;;;;;;;9.89;25.56;97038.03;5030438;28;20181;-63
2022/03/19 09:21:34;;;;;;;70.97;46.97;;;;;;;9.94;25.56;97030.38;5031303;28;20205;-65
2022/03/19 09:24:01;;;;;;;24.08;11.70;;;;;;;9.92;24.78;97037.63;5030495;28;20811;-65
2022/03/19 09:26:28;;;;;;;15.85;10.90;;;;;;;9.61;24.22;97029.50;5031005;28;20197;-63
2022/03/19 09:28:55;;;;;;;17.15;10.43;;;;;;;9.59;27.51;97037.53;5030501;28;20296;-63
2022/03/19 09:31:22;;;;;;;15.00;10.05;;;;;;;9.05;24.57;97034.09;5031329;28;20198;-64
2022/03/19 09:33:48;;;;;;;16.67;10.15;;;;;;;8.91;25.44;97043.69;5032732;28;20240;-64
2022/03/19 09:36:16;;;;;;;16.80;10.70;;;;;;;8.85;23.70;97038.44;5032386;28;20204;-63
2022/03/19 09:38:43;;;;;;;20.88;10.80;;;;;;;9.23;24.39;97038.81;5030935;28;20205;-63
2022/03/19 09:41:10;;;;;;;37.00;22.85;;;;;;;9.03;25.35;97031.66;5030234;28;20193;-65
2022/03/19 09:43:37;;;;;;;19.67;12.80;;;;;;;9.54;25.50;97029.47;5031528;28;20262;-65
2022/03/19 09:46:04;;;;;;;13.82;10.52;;;;;;;8.94;24.90;97032.81;5030455;28;20212;-61
2022/03/19 09:48:31;;;;;;;17.27;11.57;;;;;;;9.20;25.14;97032.16;5030461;28;20221;-65
2022/03/19 09:50:58;;;;;;;20.65;10.48;;;;;;;9.31;25.14;97033.41;5029942;28;20564;-62
2022/03/19 09:53:30;;;;;;;18.55;11.77;;;;;;;9.27;25.01;97022.50;5029457;28;20288;-62
2022/03/19 09:56:16;;;;;;;18.95;11.45;;;;;;;8.90;24.72;97036.84;5029371;28;20299;-62
2022/03/19 09:58:43;;;;;;;18.17;11.82;;;;;;;9.33;25.89;97036.63;5030748;28;20185;-64
2022/03/19 10:01:18;;;;;;;39.83;23.35;;;;;;;9.69;24.79;97031.94;5029942;28;20255;-62
2022/03/19 10:03:49;;;;;;;47.40;27.83;;;;;;;9.38;26.02;97039.50;5030140;28;20209;-62
2022/03/19 10:09:02;;;;;;;17.17;11.48;;;;;;;9.26;24.27;97027.94;5029861;28;20267;-62
2022/03/19 10:11:34;;;;;;;16.10;10.88;;;;;;;9.38;24.66;97029.81;5029727;28;20182;-62
2022/03/19 10:14:05;;;;;;;16.33;10.77;;;;;;;8.80;24.97;97031.16;5028174;28;20209;-63
2022/03/19 10:16:35;;;;;;;16.38;10.82;;;;;;;8.90;24.52;97025.56;5029861;28;20201;-62
2022/03/19 10:19:06;;;;;;;44.97;29.77;;;;;;;9.52;25.16;97023.63;5028713;28;20212;-63
2022/03/19 10:21:41;;;;;;;13.27;9.70;;;;;;;9.85;23.73;97011.41;5029953;28;20208;-62
2022/03/19 10:24:19;;;;;;;15.55;10.30;;;;;;;10.30;24.30;97020.34;5029318;28;20251;-61
2022/03/19 10:26:48;;;;;;;27.23;11.30;;;;;;;11.06;24.36;97021.44;5030214;28;20251;-62
2022/03/19 10:29:17;;;;;;;15.55;9.60;;;;;;;10.92;23.90;97020.69;5029518;28;20225;-62
2022/03/19 10:31:46;;;;;;;15.65;10.15;;;;;;;11.23;23.00;97007.69;5029811;28;20612;-67
2022/03/19 10:34:14;;;;;;;15.90;9.93;;;;;;;11.18;23.46;97012.72;5029371;28;20292;-67
2022/03/19 10:36:43;;;;;;;16.30;9.60;;;;;;;11.20;22.20;97013.31;5030056;28;20525;-66
2022/03/19 10:39:25;;;;;;;14.85;9.30;;;;;;;11.15;22.80;97005.28;5028990;28;20259;-67
2022/03/19 10:41:53;;;;;;;15.63;9.30;;;;;;;11.33;22.02;97006.44;5029406;28;20232;-65
2022/03/19 10:44:24;;;;;;;14.83;10.17;;;;;;;11.28;22.24;97009.66;5029228;28;20201;-67
2022/03/19 10:46:57;;;;;;;15.20;9.57;;;;;;;11.34;22.04;97011.47;5029452;28;20455;-64
2022/03/19 10:49:25;;;;;;;14.27;9.73;;;;;;;11.32;22.91;97020.53;5028558;28;20478;-62
2022/03/19 10:52:25;;;;;;;27.17;19.30;;;;;;;11.54;24.66;97014.81;5029465;28;20489;-63
2022/03/19 10:55:19;;;;;;;99.47;68.33;;;;;;;11.71;25.16;97010.72;5028964;28;21001;-60
2022/03/19 10:57:46;;;;;;;15.70;9.97;;;;;;;11.58;22.91;96999.44;5029028;28;21002;-62
2022/03/19 11:00:14;;;;;;;11.53;8.20;;;;;;;11.57;23.19;96992.59;5028650;28;20490;-64
2022/03/19 11:02:45;;;;;;;14.30;9.63;;;;;;;11.54;22.97;96998.25;5029407;28;20447;-66
2022/03/19 11:05:17;;;;;;;14.13;9.27;;;;;;;11.42;22.99;96999.91;5028976;28;21015;-65
2022/03/19 11:07:46;;;;;;;14.40;9.40;;;;;;;11.52;23.42;97003.69;5029147;28;20443;-64
2022/03/19 11:10:13;;;;;;;14.50;8.77;;;;;;;11.50;22.92;97005.72;5027384;28;20443;-66
2022/03/19 11:12:50;;;;;;;17.20;8.70;;;;;;;11.52;22.97;96995.00;5025823;28;20440;-65
2022/03/19 11:15:19;;;;;;;13.37;8.50;;;;;;;11.21;23.00;96993.94;5026757;28;20448;-65
2022/03/19 11:17:49;;;;;;;13.30;9.07;;;;;;;11.72;23.67;96980.78;5027721;28;21333;-65
2022/03/19 11:20:16;;;;;;;15.27;8.67;;;;;;;11.65;22.87;96989.72;5028461;28;20478;-65
2022/03/19 11:22:57;;;;;;;17.53;9.00;;;;;;;11.57;22.12;96984.72;5028955;28;20455;-67
2022/03/19 11:25:27;;;;;;;12.33;8.27;;;;;;;11.37;22.25;96984.00;5028856;28;20444;-65
2022/03/19 11:28:01;;;;;;;14.53;9.07;;;;;;;11.84;22.36;96983.56;5028905;28;21005;-63
2022/03/19 11:30:34;;;;;;;13.00;9.27;;;;;;;11.92;22.19;96976.22;5027394;28;20510;-64
2022/03/19 11:33:11;;;;;;;14.00;9.83;;;;;;;11.81;22.93;96981.34;5028668;28;20451;-64
2022/03/19 11:35:41;;;;;;;20.03;10.50;;;;;;;12.06;23.26;96974.31;5028681;28;20451;-64
2022/03/19 11:38:17;;;;;;;12.13;9.10;;;;;;;11.50;24.22;96981.28;5028505;28;20448;-67
2022/03/19 11:40:47;;;;;;;25.17;10.00;;;;;;;11.76;22.67;96975.91;5028381;28;20443;-66
2022/03/19 11:43:23;;;;;;;12.93;8.87;;;;;;;11.85;23.59;96966.75;5029080;28;20535;-63
2022/03/19 11:46:04;;;;;;;14.93;10.23;;;;;;;12.43;22.80;96972.56;5028396;28;20536;-64
2022/03/19 11:48:34;;;;;;;16.40;10.30;;;;;;;12.49;23.07;96967.25;5009200;28;20477;-65